createdAt,value
2023-04-19T00:01:49.528Z,98.60
2023-04-19T00:04:11.281Z,98.67
2023-04-19T00:06:32.850Z,98.79
2023-04-19T00:08:54.298Z,99.01
2023-04-19T00:11:16.229Z,98.78
2023-04-19T00:13:37.681Z,98.85
2023-04-19T00:15:59.229Z,98.05
2023-04-19T00:18:20.946Z,97.59
2023-04-19T00:20:42.925Z,97.00
2023-04-19T00:23:04.434Z,97.15
2023-04-19T00:25:26.014Z,96.57
2023-04-19T00:27:47.456Z,96.13
2023-04-19T00:30:09.232Z,95.91
2023-04-19T00:32:30.935Z,94.88
2023-04-19T00:34:52.367Z,93.53
2023-04-19T00:37:13.872Z,93.05
2023-04-19T00:39:35.676Z,93.00
2023-04-19T00:42:00.067Z,92.96
2023-04-19T00:44:21.591Z,92.89
2023-04-19T00:46:44.031Z,92.40
2023-04-19T00:49:05.946Z,92.55
2023-04-19T00:51:27.832Z,92.09
2023-04-19T00:53:49.615Z,91.69
2023-04-19T00:56:11.714Z,89.81
2023-04-19T00:58:33.570Z,89.90
2023-04-19T01:00:55.185Z,91.12
2023-04-19T01:03:17.088Z,90.57
2023-04-19T01:05:38.702Z,91.72
2023-04-19T01:08:00.292Z,92.03
2023-04-19T01:10:21.836Z,91.32
2023-04-19T01:12:43.276Z,91.35
2023-04-19T01:15:05.345Z,90.27
2023-04-19T01:17:27.462Z,89.90
2023-04-19T01:19:48.926Z,89.68
2023-04-19T01:22:10.552Z,89.80
2023-04-19T01:24:32.121Z,89.68
2023-04-19T01:26:53.642Z,89.32
2023-04-19T01:29:15.831Z,89.77
2023-04-19T01:31:37.329Z,89.28
2023-04-19T01:33:58.854Z,88.20
2023-04-19T01:36:20.395Z,88.72
2023-04-19T01:38:41.827Z,88.41
2023-04-19T01:41:03.348Z,88.56
2023-04-19T01:43:24.904Z,87.42
2023-04-19T01:45:46.433Z,87.49
2023-04-19T01:48:07.998Z,85.66
2023-04-19T01:50:29.537Z,85.55
2023-04-19T01:52:50.977Z,86.03
2023-04-19T01:55:12.740Z,85.44
2023-04-19T01:57:34.232Z,85.76
2023-04-19T01:59:55.674Z,85.41
2023-04-19T02:02:17.307Z,85.49
2023-04-19T02:04:38.837Z,85.51
2023-04-19T02:07:00.297Z,84.22
2023-04-19T02:09:21.737Z,84.35
2023-04-19T02:11:43.205Z,84.51
2023-04-19T02:14:04.714Z,84.86
2023-04-19T02:16:26.239Z,83.82
2023-04-19T02:18:48.196Z,83.44
2023-04-19T02:21:10.950Z,82.81
2023-04-19T02:23:32.608Z,83.10
2023-04-19T02:25:54.063Z,83.08
2023-04-19T02:28:15.610Z,82.72
2023-04-19T02:30:37.231Z,82.64
2023-04-19T02:32:58.897Z,82.76
2023-04-19T02:35:20.592Z,82.80
2023-04-19T02:37:42.031Z,82.76
2023-04-19T02:40:05.526Z,83.33
2023-04-19T02:42:26.965Z,82.37
2023-04-19T02:44:48.414Z,82.74
2023-04-19T02:47:09.844Z,82.44
2023-04-19T02:49:37.990Z,83.06
2023-04-19T02:51:59.445Z,83.35
2023-04-19T02:54:21.133Z,82.62
2023-04-19T02:56:42.566Z,82.46
2023-04-19T02:59:04.708Z,81.76
2023-04-19T03:01:26.641Z,81.71
2023-04-19T03:03:48.223Z,81.42
2023-04-19T03:06:09.836Z,80.39
2023-04-19T03:08:31.266Z,81.23
2023-04-19T03:10:52.850Z,80.37
2023-04-19T03:13:14.282Z,79.83
2023-04-19T03:15:35.770Z,80.36
2023-04-19T03:17:57.277Z,81.96
2023-04-19T03:20:19.189Z,83.40
2023-04-19T03:22:40.717Z,84.23
2023-04-19T03:25:02.306Z,84.35
2023-04-19T03:27:23.769Z,84.17
2023-04-19T03:29:46.677Z,85.03
2023-04-19T03:32:09.830Z,85.45
2023-04-19T03:34:31.308Z,85.93
2023-04-19T03:36:52.782Z,86.64
2023-04-19T03:39:14.296Z,87.02
2023-04-19T03:41:35.727Z,87.21
2023-04-19T03:43:58.287Z,87.58
2023-04-19T03:46:19.793Z,87.44
2023-04-19T03:48:41.308Z,88.07
2023-04-19T03:51:02.801Z,87.58
2023-04-19T03:53:24.288Z,87.33
2023-04-19T03:55:46.011Z,87.24
2023-04-19T03:58:07.436Z,85.83
2023-04-19T04:00:28.866Z,86.72
2023-04-19T04:02:50.800Z,84.69
2023-04-19T04:05:12.628Z,85.25
2023-04-19T04:07:34.123Z,85.09
2023-04-19T04:09:55.612Z,84.98
2023-04-19T04:12:17.096Z,84.86
2023-04-19T04:14:38.546Z,84.00
2023-04-19T04:16:59.998Z,84.18
2023-04-19T04:19:22.079Z,83.97
2023-04-19T04:21:43.537Z,82.80
2023-04-19T04:24:05.446Z,82.44
2023-04-19T04:26:30.785Z,83.74
2023-04-19T04:28:52.239Z,82.97
2023-04-19T04:31:13.708Z,82.46
2023-04-19T04:33:35.932Z,81.91
2023-04-19T04:35:59.193Z,82.09
2023-04-19T04:38:24.761Z,82.62
2023-04-19T04:40:51.506Z,82.87
2023-04-19T04:43:14.123Z,83.20
2023-04-19T04:45:35.596Z,83.99
2023-04-19T04:47:57.078Z,84.00
2023-04-19T04:50:18.559Z,83.45
2023-04-19T04:52:39.993Z,83.58
2023-04-19T04:55:01.466Z,83.97
2023-04-19T04:57:22.940Z,83.75
2023-04-19T04:59:45.182Z,82.86
2023-04-19T05:02:06.718Z,82.51
2023-04-19T05:04:28.325Z,83.68
2023-04-19T05:06:49.790Z,84.31
2023-04-19T05:09:11.825Z,84.11
2023-04-19T05:11:33.758Z,83.76
2023-04-19T05:13:55.274Z,84.15
2023-04-19T05:16:16.738Z,84.44
2023-04-19T05:18:38.186Z,85.22
2023-04-19T05:20:59.683Z,84.65
2023-04-19T05:23:21.324Z,84.49
2023-04-19T05:25:42.862Z,83.92
2023-04-19T05:28:04.588Z,82.57
2023-04-19T05:30:26.068Z,81.15
2023-04-19T05:32:47.713Z,80.48
2023-04-19T05:35:09.771Z,79.77
2023-04-19T05:37:31.326Z,80.96
2023-04-19T05:39:52.857Z,79.95
2023-04-19T05:42:14.365Z,79.44
2023-04-19T05:44:35.850Z,78.77
2023-04-19T05:46:57.344Z,77.14
2023-04-19T05:49:18.884Z,77.09
2023-04-19T05:51:40.405Z,75.94
2023-04-19T05:54:02.006Z,75.53
2023-04-19T05:56:23.542Z,74.21
2023-04-19T05:58:45.072Z,74.98
2023-04-19T06:01:07.009Z,73.94
2023-04-19T06:03:31.215Z,73.25
2023-04-19T06:05:53.995Z,73.07
2023-04-19T06:08:16.953Z,74.21
2023-04-19T06:10:54.055Z,73.74
2023-04-19T06:13:18.399Z,73.39
2023-04-19T06:15:40.249Z,70.66
2023-04-19T06:18:01.760Z,68.30
2023-04-19T06:20:23.283Z,68.50
2023-04-19T06:22:46.012Z,67.65
2023-04-19T06:25:07.997Z,67.61
2023-04-19T06:27:29.468Z,66.90
2023-04-19T06:29:51.329Z,64.89
2023-04-19T06:32:12.935Z,65.37
2023-04-19T06:34:34.575Z,64.42
2023-04-19T06:36:56.016Z,65.34
2023-04-19T06:39:17.956Z,62.78
2023-04-19T06:41:39.404Z,63.59
2023-04-19T06:44:00.849Z,66.04
2023-04-19T06:46:22.356Z,64.83
2023-04-19T06:48:43.885Z,65.49
2023-04-19T06:51:05.672Z,65.54
2023-04-19T06:53:27.492Z,65.54
2023-04-19T06:55:49.032Z,66.69
2023-04-19T06:58:10.971Z,66.78
2023-04-19T07:00:32.464Z,66.94
2023-04-19T07:02:54.302Z,68.73
2023-04-19T07:05:15.967Z,68.47
2023-04-19T07:07:38.281Z,68.13
2023-04-19T07:09:59.812Z,70.05
2023-04-19T07:12:21.351Z,68.62
2023-04-19T07:14:42.846Z,69.11
2023-04-19T07:17:05.551Z,67.57
2023-04-19T07:19:28.238Z,66.94
2023-04-19T07:21:50.548Z,66.67
2023-04-19T07:24:12.021Z,65.31
2023-04-19T07:26:34.388Z,62.90
2023-04-19T07:28:56.971Z,62.07
2023-04-19T07:31:19.067Z,61.81
2023-04-19T07:33:40.613Z,59.66
2023-04-19T07:36:02.070Z,60.41
2023-04-19T07:38:24.903Z,59.25
2023-04-19T07:40:46.500Z,59.20
2023-04-19T07:43:07.980Z,60.94
2023-04-19T07:45:30.803Z,60.71
2023-04-19T07:47:52.334Z,61.22
2023-04-19T07:50:13.843Z,60.63
2023-04-19T07:52:35.316Z,60.97
2023-04-19T07:54:57.030Z,61.38
2023-04-19T07:57:18.511Z,60.23
2023-04-19T07:59:39.991Z,59.87
2023-04-19T08:02:01.524Z,58.88
2023-04-19T08:04:23.338Z,57.66
2023-04-19T08:06:45.707Z,56.85
2023-04-19T08:09:07.237Z,53.86
2023-04-19T08:11:28.704Z,51.14
2023-04-19T08:14:04.057Z,50.43
2023-04-19T08:17:09.131Z,50.76
2023-04-19T08:19:12.464Z,51.85
2023-04-19T08:21:40.511Z,50.86
2023-04-19T08:24:02.890Z,52.58
2023-04-19T08:26:26.752Z,51.50
2023-04-19T08:28:49.860Z,50.00
2023-04-19T08:31:11.361Z,50.20
2023-04-19T08:33:32.908Z,48.59
2023-04-19T08:35:54.359Z,49.33
2023-04-19T08:38:15.932Z,50.27
2023-04-19T08:40:45.531Z,49.75
2023-04-19T08:43:07.473Z,50.39
2023-04-19T08:45:29.700Z,49.84
2023-04-19T08:48:00.850Z,47.84
2023-04-19T08:50:32.161Z,48.47
2023-04-19T08:53:05.647Z,48.25
2023-04-19T08:56:03.322Z,48.16
2023-04-19T09:00:54.727Z,48.85
2023-04-19T09:03:16.366Z,48.75
2023-04-19T09:05:38.628Z,48.35
2023-04-19T09:08:29.144Z,48.80
2023-04-19T09:11:01.803Z,46.72
2023-04-19T09:13:23.618Z,47.24
2023-04-19T09:15:45.267Z,47.23
2023-04-19T09:18:09.962Z,47.73
2023-04-19T09:20:38.365Z,48.10
2023-04-19T09:23:07.832Z,47.06
2023-04-19T09:25:52.351Z,46.28
2023-04-19T09:28:12.393Z,47.40
2023-04-19T09:30:40.234Z,45.24
2023-04-19T09:33:05.622Z,45.42
2023-04-19T09:35:49.565Z,45.51
2023-04-19T09:38:11.954Z,44.89
2023-04-19T09:40:33.717Z,44.09
2023-04-19T09:43:08.886Z,45.49
2023-04-19T09:45:41.208Z,43.63
2023-04-19T09:48:04.845Z,42.80
2023-04-19T09:50:27.664Z,42.80
2023-04-19T09:52:50.278Z,41.62
2023-04-19T09:55:25.400Z,41.93
2023-04-19T09:57:48.783Z,41.12
2023-04-19T10:00:13.406Z,41.88
2023-04-19T10:02:36.141Z,40.90
2023-04-19T10:05:16.332Z,40.99
2023-04-19T10:07:40.084Z,42.68
2023-04-19T10:10:16.035Z,43.69
2023-04-19T10:13:03.928Z,43.12
2023-04-19T10:15:23.786Z,42.98
2023-04-19T10:17:45.630Z,42.66
2023-04-19T10:20:12.158Z,41.67
2023-04-19T10:22:36.330Z,40.06
2023-04-19T10:25:13.246Z,40.78
2023-04-19T10:27:34.947Z,39.12
2023-04-19T10:30:07.035Z,39.40
2023-04-19T10:32:37.004Z,39.34
2023-04-19T10:35:04.705Z,39.27
2023-04-19T10:37:26.473Z,40.35
2023-04-19T10:39:47.967Z,38.69
2023-04-19T10:42:09.624Z,39.68
2023-04-19T10:44:31.112Z,39.18
2023-04-19T10:46:52.576Z,40.06
2023-04-19T10:49:14.118Z,40.14
2023-04-19T10:51:38.734Z,40.48
2023-04-19T10:54:05.367Z,40.62
2023-04-19T10:56:32.625Z,39.90
2023-04-19T10:59:07.711Z,38.15
2023-04-19T11:01:45.898Z,39.12
2023-04-19T11:04:08.798Z,40.27
2023-04-19T11:06:30.980Z,39.57
2023-04-19T11:08:52.975Z,40.35
2023-04-19T11:11:15.540Z,39.13
2023-04-19T11:13:37.299Z,38.94
2023-04-19T11:15:59.414Z,39.39
2023-04-19T11:18:20.938Z,38.80
2023-04-19T11:20:43.316Z,39.69
2023-04-19T11:23:16.572Z,39.79
2023-04-19T11:25:38.028Z,40.11
2023-04-19T11:28:00.425Z,38.68
2023-04-19T11:30:30.450Z,39.20
2023-04-19T11:32:53.716Z,40.55
2023-04-19T11:35:15.893Z,38.72
2023-04-19T11:37:39.385Z,38.88
2023-04-19T11:40:02.798Z,38.81
2023-04-19T11:42:26.286Z,38.42
2023-04-19T11:44:51.977Z,38.82
2023-04-19T11:47:13.494Z,38.00
2023-04-19T11:49:34.952Z,38.20
2023-04-19T11:52:02.443Z,37.42
2023-04-19T11:54:26.897Z,39.08
2023-04-19T11:57:05.705Z,38.73
2023-04-19T11:59:27.632Z,37.95
2023-04-19T12:01:49.056Z,39.38
2023-04-19T12:04:11.619Z,36.82
2023-04-19T12:06:33.372Z,37.39
2023-04-19T12:08:56.432Z,36.53
2023-04-19T12:11:19.837Z,36.52
2023-04-19T12:13:41.687Z,36.20
2023-04-19T12:16:03.595Z,36.17
2023-04-19T12:18:25.530Z,35.17
2023-04-19T12:20:50.259Z,34.86
2023-04-19T12:23:13.974Z,35.11
2023-04-19T12:25:35.602Z,32.87
2023-04-19T12:27:57.637Z,34.32
2023-04-19T12:30:19.139Z,35.05
2023-04-19T12:32:40.608Z,32.99
2023-04-19T12:35:02.120Z,32.67
2023-04-19T12:37:23.551Z,34.99
2023-04-19T12:39:45.029Z,32.23
2023-04-19T12:42:06.642Z,32.18
2023-04-19T12:44:28.147Z,32.05
2023-04-19T12:46:49.798Z,30.52
2023-04-19T12:49:11.284Z,28.09
2023-04-19T12:51:33.040Z,28.42
2023-04-19T12:53:54.681Z,27.91
2023-04-19T12:56:17.293Z,28.42
2023-04-19T12:58:38.805Z,29.48
2023-04-19T13:01:00.473Z,28.49
2023-04-19T13:03:22.113Z,28.06
2023-04-19T13:05:43.736Z,28.31
2023-04-19T13:08:05.868Z,27.95
2023-04-19T13:10:27.376Z,27.22
2023-04-19T13:12:48.880Z,27.01
2023-04-19T13:15:10.820Z,25.75
2023-04-19T13:17:32.497Z,25.11
2023-04-19T13:19:53.968Z,22.91
2023-04-19T13:22:15.702Z,24.94
2023-04-19T13:24:37.216Z,26.22
2023-04-19T13:26:58.706Z,25.63
2023-04-19T13:29:20.333Z,26.13
2023-04-19T13:31:43.680Z,27.25
2023-04-19T13:34:05.572Z,27.46
2023-04-19T13:36:28.182Z,27.75
2023-04-19T13:38:49.678Z,27.15
2023-04-19T13:41:11.631Z,25.79
2023-04-19T13:43:33.112Z,25.22
2023-04-19T13:45:54.586Z,24.87
2023-04-19T13:48:16.212Z,25.17
2023-04-19T13:50:37.804Z,25.96
2023-04-19T13:52:59.372Z,26.04
2023-04-19T13:55:20.898Z,27.07
2023-04-19T13:57:42.749Z,27.84
2023-04-19T14:00:04.900Z,28.36
2023-04-19T14:02:26.626Z,26.65
2023-04-19T14:04:48.345Z,28.06
2023-04-19T14:07:09.963Z,28.39
2023-04-19T14:09:31.626Z,28.32
2023-04-19T14:11:53.271Z,28.63
2023-04-19T14:14:15.567Z,29.20
2023-04-19T14:16:37.289Z,28.63
2023-04-19T14:18:58.874Z,27.80
2023-04-19T14:21:20.465Z,26.96
2023-04-19T14:23:41.937Z,25.32
2023-04-19T14:26:03.498Z,25.65
2023-04-19T14:28:25.002Z,25.31
2023-04-19T14:30:46.465Z,26.99
2023-04-19T14:33:07.948Z,27.28
2023-04-19T14:35:30.175Z,28.39
2023-04-19T14:37:51.714Z,28.78
2023-04-19T14:40:13.250Z,28.18
2023-04-19T14:42:34.758Z,27.62
2023-04-19T14:44:58.038Z,26.90
2023-04-19T14:47:20.858Z,25.20
2023-04-19T14:49:42.369Z,24.38
2023-04-19T14:52:04.630Z,22.76
2023-04-19T14:54:26.128Z,24.02
2023-04-19T14:56:47.620Z,22.97
2023-04-19T14:59:09.155Z,22.81
2023-04-19T15:01:30.592Z,23.41
2023-04-19T15:03:52.255Z,22.41
2023-04-19T15:06:13.902Z,22.59
2023-04-19T15:08:35.573Z,22.27
2023-04-19T15:10:57.145Z,21.52
2023-04-19T15:13:18.595Z,22.00
2023-04-19T15:15:40.092Z,21.87
2023-04-19T15:18:01.873Z,22.81
2023-04-19T15:20:23.400Z,23.42
2023-04-19T15:22:45.013Z,23.42
2023-04-19T15:25:06.581Z,24.41
2023-04-19T15:27:28.332Z,24.92
2023-04-19T15:29:49.795Z,24.66
2023-04-19T15:32:11.236Z,24.46
2023-04-19T15:34:32.689Z,22.95
2023-04-19T15:36:54.248Z,22.70
2023-04-19T15:39:15.980Z,24.02
2023-04-19T15:41:37.653Z,23.83
2023-04-19T15:43:59.208Z,25.22
2023-04-19T15:46:20.698Z,26.11
2023-04-19T15:48:44.697Z,27.61
2023-04-19T15:51:07.042Z,28.49
2023-04-19T15:53:28.705Z,29.60
2023-04-19T15:55:50.249Z,29.86
2023-04-19T15:58:11.905Z,30.55
2023-04-19T16:00:33.448Z,30.17
2023-04-19T16:02:56.057Z,30.33
2023-04-19T16:05:17.675Z,28.88
2023-04-19T16:07:39.166Z,28.26
2023-04-19T16:10:00.618Z,27.75
2023-04-19T16:12:22.128Z,26.26
2023-04-19T16:14:43.554Z,25.65
2023-04-19T16:17:05.051Z,24.95
2023-04-19T16:19:26.480Z,24.26
2023-04-19T16:21:47.969Z,24.04
2023-04-19T16:24:09.432Z,24.21
2023-04-19T16:26:30.936Z,25.26
2023-04-19T16:28:52.782Z,26.53
2023-04-19T16:31:14.390Z,28.16
2023-04-19T16:33:35.867Z,29.26
2023-04-19T16:35:57.356Z,30.93
2023-04-19T16:38:18.857Z,32.03
2023-04-19T16:40:40.512Z,32.79
2023-04-19T16:43:01.967Z,33.91
2023-04-19T16:45:23.557Z,34.65
2023-04-19T16:47:46.182Z,34.98
2023-04-19T16:50:08.242Z,35.71
2023-04-19T16:52:32.043Z,35.23
2023-04-19T16:54:54.034Z,35.49
2023-04-19T16:57:15.571Z,35.48
2023-04-19T16:59:37.246Z,35.32
2023-04-19T17:02:01.465Z,35.57
2023-04-19T17:04:24.085Z,34.54
2023-04-19T17:06:45.689Z,34.67
2023-04-19T17:09:07.797Z,34.51
2023-04-19T17:11:32.219Z,34.28
2023-04-19T17:13:55.293Z,36.56
2023-04-19T17:16:18.170Z,39.30
2023-04-19T17:18:39.642Z,39.25
2023-04-19T17:21:01.098Z,39.35
2023-04-19T17:23:22.675Z,39.59
2023-04-19T17:25:44.176Z,39.16
2023-04-19T17:28:06.012Z,39.96
2023-04-19T17:30:28.261Z,40.37
2023-04-19T17:32:49.947Z,40.14
2023-04-19T17:35:11.541Z,40.21
2023-04-19T17:37:33.072Z,40.48
2023-04-19T17:39:54.580Z,39.95
2023-04-19T17:42:16.210Z,39.66
2023-04-19T17:44:37.695Z,40.14
2023-04-19T17:46:59.329Z,40.42
2023-04-19T17:49:21.807Z,40.44
2023-04-19T17:51:43.487Z,40.26
2023-04-19T17:54:04.991Z,40.43
2023-04-19T17:56:26.836Z,41.17
2023-04-19T17:58:48.292Z,40.85
2023-04-19T18:01:10.489Z,40.96
2023-04-19T18:03:32.754Z,40.65
2023-04-19T18:05:54.256Z,40.65
2023-04-19T18:08:15.824Z,41.40
2023-04-19T18:10:37.301Z,41.02
2023-04-19T18:12:58.868Z,41.05
2023-04-19T18:15:20.316Z,41.58
2023-04-19T18:17:41.886Z,42.04
2023-04-19T18:20:05.455Z,42.15
2023-04-19T18:22:26.980Z,42.40
2023-04-19T18:24:51.123Z,42.59
2023-04-19T18:27:13.004Z,42.53
2023-04-19T18:29:34.459Z,43.10
2023-04-19T18:31:56.006Z,43.46
2023-04-19T18:34:17.517Z,44.06
2023-04-19T18:36:39.001Z,44.97
2023-04-19T18:39:00.573Z,44.72
2023-04-19T18:41:22.079Z,44.93
2023-04-19T18:43:54.461Z,44.60
2023-04-19T18:46:25.075Z,45.00
2023-04-19T18:48:46.922Z,45.33
2023-04-19T18:51:09.270Z,45.33
2023-04-19T18:53:31.564Z,46.40
2023-04-19T18:55:57.638Z,45.93
2023-04-19T18:58:19.136Z,46.46
2023-04-19T19:00:40.689Z,46.98
2023-04-19T19:03:03.357Z,47.14
2023-04-19T19:05:25.830Z,47.29
2023-04-19T19:07:47.585Z,46.92
2023-04-19T19:10:19.311Z,47.61
2023-04-19T19:12:43.496Z,47.42
2023-04-19T19:15:05.789Z,47.56
2023-04-19T19:17:28.284Z,47.76
2023-04-19T19:19:50.068Z,47.85
2023-04-19T19:22:25.213Z,49.35
2023-04-19T19:24:48.771Z,49.93
2023-04-19T19:27:10.233Z,49.54
2023-04-19T19:29:36.323Z,49.33
2023-04-19T19:31:58.095Z,49.93
2023-04-19T19:34:27.589Z,49.63
2023-04-19T19:36:51.851Z,50.88
2023-04-19T19:39:13.333Z,50.68
2023-04-19T19:43:59.129Z,52.06
2023-04-19T19:46:22.688Z,54.83
2023-04-19T19:48:44.669Z,55.71
2023-04-19T19:51:28.631Z,54.42
2023-04-19T19:53:47.562Z,54.29
2023-04-19T19:56:18.310Z,54.56
2023-04-19T19:58:50.258Z,55.68
2023-04-19T20:01:13.270Z,54.98
2023-04-19T20:03:37.646Z,54.46
2023-04-19T20:05:59.926Z,56.59
2023-04-19T20:08:21.455Z,57.74
2023-04-19T20:10:43.121Z,56.79
2023-04-19T20:13:06.553Z,56.42
2023-04-19T20:15:28.504Z,54.57
2023-04-19T20:17:50.118Z,55.67
2023-04-19T20:20:12.170Z,54.81
2023-04-19T20:22:33.631Z,54.17
2023-04-19T20:24:55.089Z,53.57
2023-04-19T20:27:16.517Z,52.01
2023-04-19T20:29:38.303Z,49.77
2023-04-19T20:31:59.810Z,50.14
2023-04-19T20:34:21.427Z,49.91
2023-04-19T20:36:46.587Z,50.53
2023-04-19T20:39:13.060Z,49.97
2023-04-19T20:41:34.829Z,50.47
2023-04-19T20:43:57.173Z,52.65
2023-04-19T20:46:18.775Z,52.27
2023-04-19T20:48:40.352Z,52.88
2023-04-19T20:51:01.797Z,53.33
2023-04-19T20:53:23.355Z,54.02
2023-04-19T20:55:44.929Z,54.79
2023-04-19T20:58:06.475Z,55.51
2023-04-19T21:00:28.249Z,56.33
2023-04-19T21:02:49.877Z,57.44
2023-04-19T21:05:11.683Z,58.08
2023-04-19T21:07:33.600Z,59.60
2023-04-19T21:09:55.188Z,60.05
2023-04-19T21:12:17.483Z,61.52
2023-04-19T21:14:39.026Z,61.47
2023-04-19T21:17:01.841Z,61.48
2023-04-19T21:19:23.312Z,62.31
2023-04-19T21:21:44.751Z,61.72
2023-04-19T21:24:07.590Z,62.66
2023-04-19T21:26:29.068Z,61.54
2023-04-19T21:28:51.987Z,60.41
2023-04-19T21:31:13.518Z,61.23
2023-04-19T21:33:35.032Z,61.87
2023-04-19T21:35:56.463Z,60.92
2023-04-19T21:38:17.972Z,61.32
2023-04-19T21:40:39.481Z,61.31
2023-04-19T21:43:00.999Z,62.56
2023-04-19T21:45:22.515Z,62.15
2023-04-19T21:47:44.129Z,62.60
2023-04-19T21:50:06.220Z,61.34
2023-04-19T21:52:27.668Z,62.32
2023-04-19T21:54:49.145Z,63.41
2023-04-19T21:57:11.192Z,62.40
2023-04-19T21:59:35.537Z,63.24
2023-04-19T22:01:58.178Z,63.02
2023-04-19T22:04:20.013Z,63.62
2023-04-19T22:06:44.049Z,63.24
2023-04-19T22:09:05.826Z,64.00
2023-04-19T22:11:29.040Z,63.55
2023-04-19T22:13:51.342Z,64.53
2023-04-19T22:16:13.014Z,65.09
2023-04-19T22:18:35.794Z,65.73
2023-04-19T22:20:57.244Z,66.01
2023-04-19T22:23:18.816Z,65.50
2023-04-19T22:25:40.751Z,66.68
2023-04-19T22:28:02.206Z,67.12
2023-04-19T22:30:23.764Z,67.90
2023-04-19T22:32:45.319Z,67.45
2023-04-19T22:35:07.583Z,67.73
2023-04-19T22:37:29.054Z,67.67
2023-04-19T22:39:50.495Z,67.61
2023-04-19T22:42:12.080Z,66.95
2023-04-19T22:44:33.552Z,68.98
2023-04-19T22:46:55.066Z,68.08
2023-04-19T22:49:16.731Z,67.36
2023-04-19T22:51:38.509Z,66.65
2023-04-19T22:53:59.997Z,65.75
2023-04-19T22:56:21.530Z,68.15
2023-04-19T22:58:42.981Z,68.85
2023-04-19T23:01:04.570Z,67.13
2023-04-19T23:03:26.145Z,66.96
2023-04-19T23:05:47.796Z,67.50
2023-04-19T23:08:09.518Z,67.10
2023-04-19T23:10:31.783Z,66.13
2023-04-19T23:12:57.329Z,67.28
2023-04-19T23:15:18.807Z,69.79
2023-04-19T23:17:40.463Z,71.29
2023-04-19T23:20:02.017Z,70.23
2023-04-19T23:22:23.534Z,70.59
2023-04-19T23:24:44.961Z,72.33
2023-04-19T23:27:06.727Z,72.80
2023-04-19T23:29:28.184Z,72.75
2023-04-19T23:31:49.726Z,73.95
2023-04-19T23:34:11.534Z,76.61
2023-04-19T23:36:32.987Z,76.67
2023-04-19T23:38:54.414Z,77.16
2023-04-19T23:41:15.854Z,76.05
2023-04-19T23:43:37.318Z,77.20
2023-04-19T23:45:58.776Z,77.75
2023-04-19T23:48:20.378Z,78.99
2023-04-19T23:50:41.799Z,78.95
2023-04-19T23:53:04.471Z,79.50
2023-04-19T23:55:25.995Z,80.71
2023-04-19T23:57:47.485Z,81.27
